CheckWX is a tool to help pilots better visualize weather data.  It is not intended as a substitute for an official pre-flight weather briefing.

22:14:48 UTC

KMGY METAR
Dayton-Wright Brothers Airport
Dayton, Ohio, USA
Current

22 mins ago

KMGY 242153Z AUTO 18004KT 10SM CLR 28/19 A2999 RMK AO2 SLP148 T02780194
Observed
May-24 @ 21:53 UTC
Wind
  • 180° at 4 KTS
Visibility
Flight Rules
VFR
Cloud Levels
  • Clear skies
Temperature
28°C / 82°F
Dewpoint
19°C / 66°F
Humidity
58%
Altimeter
29.99" Hg
Pressure
1015.62 hPa
Previous

1 hour ago

KMGY 242053Z AUTO 17007KT 10SM BKN050 29/19 A2998 RMK AO2 SLP144 T02890194 58019
Observed
May-24 @ 20:53 UTC
Wind
  • 170° at 7 KTS
Visibility
Flight Rules
VFR
Cloud Levels
  • Broken at 5,000' AGL
Temperature
29°C / 84°F
Dewpoint
19°C / 66°F
Humidity
55%
Altimeter
29.98" Hg
Pressure
1015.22 hPa
Previous

2 hours ago

KMGY 241953Z AUTO VRB03KT 10SM SCT049 29/19 A3001 RMK AO2 SLP153 T02940189
Observed
May-24 @ 19:53 UTC
Wind
  • Variable at 3 KTS
Visibility
Flight Rules
VFR
Cloud Levels
  • Scattered at 4,900' AGL
Temperature
29°C / 84°F
Dewpoint
19°C / 66°F
Humidity
55%
Altimeter
30.01" Hg
Pressure
1016.22 hPa